createdAt,value
2024-02-28T00:01:57.515Z,100.00
2024-02-28T00:04:25.301Z,100.00
2024-02-28T00:06:53.134Z,100.00
2024-02-28T00:09:22.210Z,100.00
2024-02-28T00:11:50.135Z,100.00
2024-02-28T00:14:18.288Z,100.00
2024-02-28T00:16:47.017Z,100.00
2024-02-28T00:19:14.862Z,100.00
2024-02-28T00:21:43.267Z,100.00
2024-02-28T00:24:11.682Z,100.00
2024-02-28T00:26:43.391Z,100.00
2024-02-28T00:29:11.242Z,100.00
2024-02-28T00:31:38.998Z,100.00
2024-02-28T00:34:07.748Z,100.00
2024-02-28T00:36:44.131Z,100.00
2024-02-28T00:39:20.015Z,100.00
2024-02-28T00:41:49.040Z,100.00
2024-02-28T00:44:17.468Z,100.00
2024-02-28T00:46:45.161Z,100.00
2024-02-28T00:49:13.234Z,100.00
2024-02-28T00:51:40.959Z,100.00
2024-02-28T00:54:09.697Z,100.00
2024-02-28T00:56:37.472Z,100.00
2024-02-28T00:59:07.598Z,100.00
2024-02-28T01:01:35.414Z,100.00
2024-02-28T01:04:03.375Z,100.00
2024-02-28T01:06:31.104Z,100.00
2024-02-28T01:08:58.799Z,100.00
2024-02-28T01:11:26.897Z,100.00
2024-02-28T01:13:54.803Z,100.00
2024-02-28T01:16:23.997Z,100.00
2024-02-28T01:18:51.719Z,100.00
2024-02-28T01:21:20.508Z,100.00
2024-02-28T01:23:48.212Z,100.00
2024-02-28T01:26:15.978Z,100.00
2024-02-28T01:28:44.820Z,100.00
2024-02-28T01:31:12.944Z,100.00
2024-02-28T01:33:42.065Z,100.00
2024-02-28T01:36:09.775Z,100.00
2024-02-28T01:38:37.449Z,100.00
2024-02-28T01:41:06.491Z,100.00
2024-02-28T01:43:34.274Z,100.00
2024-02-28T01:46:03.522Z,100.00
2024-02-28T01:48:31.979Z,100.00
2024-02-28T01:51:01.079Z,100.00
2024-02-28T01:53:28.896Z,100.00
2024-02-28T01:55:57.969Z,100.00
2024-02-28T01:58:25.780Z,100.00
2024-02-28T02:00:54.462Z,100.00
2024-02-28T02:03:22.285Z,100.00
2024-02-28T02:05:49.921Z,100.00
2024-02-28T02:08:18.980Z,100.00
2024-02-28T02:10:46.764Z,100.00
2024-02-28T02:13:14.440Z,100.00
2024-02-28T02:15:42.245Z,100.00
2024-02-28T02:18:09.986Z,100.00
2024-02-28T02:20:40.867Z,100.00
2024-02-28T02:23:10.494Z,100.00
2024-02-28T02:25:45.867Z,100.00
2024-02-28T02:28:13.765Z,100.00
2024-02-28T02:30:42.608Z,100.00
2024-02-28T02:33:10.332Z,100.00
2024-02-28T02:35:38.118Z,100.00
2024-02-28T02:38:06.119Z,100.00
2024-02-28T02:40:35.272Z,100.00
2024-02-28T02:43:02.987Z,100.00
2024-02-28T02:45:30.655Z,100.00
2024-02-28T02:47:58.364Z,100.00
2024-02-28T02:50:26.153Z,100.00
2024-02-28T02:52:53.933Z,100.00
2024-02-28T02:55:21.795Z,100.00
2024-02-28T02:57:50.812Z,100.00
2024-02-28T03:00:19.104Z,100.00
2024-02-28T03:02:46.784Z,100.00
2024-02-28T03:05:14.550Z,100.00
2024-02-28T03:07:42.204Z,100.00
2024-02-28T03:10:11.382Z,100.00
2024-02-28T03:12:39.151Z,100.00
2024-02-28T03:15:08.968Z,100.00
2024-02-28T03:17:36.634Z,100.00
2024-02-28T03:20:05.066Z,100.00
2024-02-28T03:22:32.736Z,100.00
2024-02-28T03:25:00.479Z,100.00
2024-02-28T03:27:28.246Z,100.00
2024-02-28T03:29:55.922Z,100.00
2024-02-28T03:32:25.038Z,100.00
2024-02-28T03:34:52.688Z,100.00
2024-02-28T03:37:20.299Z,100.00
2024-02-28T03:39:47.989Z,100.00
2024-02-28T03:42:15.643Z,100.00
2024-02-28T03:44:43.345Z,100.00
2024-02-28T03:47:11.023Z,100.00
2024-02-28T03:49:40.036Z,100.00
2024-02-28T03:52:08.181Z,100.00
2024-02-28T03:54:35.951Z,100.00
2024-02-28T03:57:03.657Z,100.00
2024-02-28T03:59:31.324Z,100.00
2024-02-28T04:01:58.938Z,100.00
2024-02-28T04:04:26.631Z,100.00
2024-02-28T04:06:55.768Z,100.00
2024-02-28T04:09:23.559Z,100.00
2024-02-28T04:11:52.138Z,100.00
2024-02-28T04:14:19.836Z,100.00
2024-02-28T04:16:48.261Z,100.00
2024-02-28T04:19:15.924Z,100.00
2024-02-28T04:21:43.927Z,100.00
2024-02-28T04:24:15.519Z,100.00
2024-02-28T04:26:44.511Z,100.00
2024-02-28T04:29:15.114Z,100.00
2024-02-28T04:31:43.134Z,100.00
2024-02-28T04:34:10.874Z,100.00
2024-02-28T04:36:38.720Z,100.00
2024-02-28T04:39:08.625Z,100.00
2024-02-28T04:41:37.614Z,100.00
2024-02-28T04:44:05.396Z,100.00
2024-02-28T04:46:33.053Z,100.00
2024-02-28T04:49:01.020Z,100.00
2024-02-28T04:51:28.694Z,100.00
2024-02-28T04:53:56.340Z,100.00
2024-02-28T04:56:25.089Z,100.00
2024-02-28T04:58:54.127Z,100.00
2024-02-28T05:01:22.465Z,100.00
2024-02-28T05:03:50.510Z,100.00
2024-02-28T05:06:18.310Z,100.00
2024-02-28T05:08:45.992Z,100.00
2024-02-28T05:11:13.742Z,100.00
2024-02-28T05:13:41.395Z,100.00
2024-02-28T05:16:15.427Z,100.00
2024-02-28T05:18:43.081Z,100.00
2024-02-28T05:21:10.848Z,100.00
2024-02-28T05:23:38.623Z,100.00
2024-02-28T05:26:08.022Z,100.00
2024-02-28T05:28:35.869Z,100.00
2024-02-28T05:31:05.062Z,100.00
2024-02-28T05:33:34.154Z,100.00
2024-02-28T05:36:01.873Z,100.00
2024-02-28T05:38:29.795Z,100.00
2024-02-28T05:40:57.682Z,100.00
2024-02-28T05:43:25.456Z,100.00
2024-02-28T05:45:53.210Z,100.00
2024-02-28T05:48:21.385Z,100.00
2024-02-28T05:50:50.480Z,100.00
2024-02-28T05:53:18.685Z,100.00
2024-02-28T05:55:47.056Z,100.00
2024-02-28T05:58:16.545Z,100.00
2024-02-28T06:00:44.359Z,100.00
2024-02-28T06:03:12.133Z,100.00
2024-02-28T06:05:42.459Z,100.00
2024-02-28T06:08:12.958Z,100.00
2024-02-28T06:10:40.719Z,100.00
2024-02-28T06:13:08.395Z,100.00
2024-02-28T06:15:36.194Z,100.00
2024-02-28T06:18:04.133Z,100.00
2024-02-28T06:20:32.275Z,100.00
2024-02-28T06:23:05.293Z,100.00
2024-02-28T06:25:39.163Z,100.00
2024-02-28T06:28:07.963Z,100.00
2024-02-28T06:30:35.746Z,100.00
2024-02-28T06:33:03.577Z,100.00
2024-02-28T06:35:31.629Z,100.00
2024-02-28T06:37:59.376Z,100.00
2024-02-28T06:40:28.576Z,100.00
2024-02-28T06:42:59.039Z,100.00
2024-02-28T06:45:27.188Z,100.00
2024-02-28T06:47:54.881Z,100.00
2024-02-28T06:50:22.741Z,100.00
2024-02-28T06:52:50.410Z,100.00
2024-02-28T06:55:18.305Z,100.00
2024-02-28T06:57:46.068Z,100.00
2024-02-28T07:00:17.216Z,100.00
2024-02-28T07:02:45.299Z,100.00
2024-02-28T07:05:13.048Z,100.00
2024-02-28T07:07:40.857Z,100.00
2024-02-28T07:10:09.395Z,100.00
2024-02-28T07:12:37.231Z,100.00
2024-02-28T07:15:05.623Z,100.00
2024-02-28T07:17:34.984Z,100.00
2024-02-28T07:20:03.130Z,100.00
2024-02-28T07:22:30.847Z,100.00
2024-02-28T07:24:58.724Z,100.00
2024-02-28T07:27:26.490Z,100.00
2024-02-28T07:29:54.176Z,100.00
2024-02-28T07:32:21.882Z,100.00
2024-02-28T07:34:51.693Z,100.00
2024-02-28T07:37:19.451Z,100.00
2024-02-28T07:39:48.516Z,100.00
2024-02-28T07:42:16.269Z,100.00
2024-02-28T07:44:44.018Z,100.00
2024-02-28T07:47:11.729Z,100.00
2024-02-28T07:49:39.456Z,100.00
2024-02-28T07:52:08.736Z,100.00
2024-02-28T07:54:37.922Z,100.00
2024-02-28T07:57:05.975Z,100.00
2024-02-28T07:59:33.693Z,100.00
2024-02-28T08:02:01.508Z,100.00
2024-02-28T08:04:32.680Z,100.00
2024-02-28T08:07:00.406Z,100.00
2024-02-28T08:09:30.133Z,100.00
2024-02-28T08:11:59.007Z,100.00
2024-02-28T08:14:26.759Z,100.00
2024-02-28T08:16:54.422Z,100.00
2024-02-28T08:19:22.128Z,100.00
2024-02-28T08:21:52.895Z,100.00
2024-02-28T08:24:20.962Z,100.00
2024-02-28T08:26:50.132Z,100.00
2024-02-28T08:29:17.853Z,100.00
2024-02-28T08:31:46.616Z,100.00
2024-02-28T08:34:14.624Z,100.00
2024-02-28T08:36:42.674Z,100.00
2024-02-28T08:39:12.449Z,100.00
2024-02-28T08:41:40.175Z,100.00
2024-02-28T08:44:09.334Z,100.00
2024-02-28T08:46:37.141Z,100.00
2024-02-28T08:49:05.207Z,100.00
2024-02-28T08:51:33.029Z,100.00
2024-02-28T08:54:00.955Z,100.00
2024-02-28T08:56:28.805Z,100.00
2024-02-28T08:58:56.564Z,100.00
2024-02-28T09:01:25.933Z,100.00
2024-02-28T09:03:53.801Z,100.00
2024-02-28T09:06:21.609Z,100.00
2024-02-28T09:08:49.372Z,100.00
2024-02-28T09:11:17.102Z,100.00
2024-02-28T09:13:44.866Z,100.00
2024-02-28T09:16:12.677Z,100.00
2024-02-28T09:18:42.900Z,100.00
2024-02-28T09:21:10.743Z,100.00
2024-02-28T09:23:38.602Z,100.00
2024-02-28T09:26:06.538Z,100.00
2024-02-28T09:28:34.550Z,100.00
2024-02-28T09:31:04.086Z,100.00
2024-02-28T09:33:33.616Z,100.00
2024-02-28T09:36:03.984Z,98.45
2024-02-28T09:38:33.671Z,97.33
2024-02-28T09:41:01.490Z,97.94
2024-02-28T09:43:31.677Z,98.04
2024-02-28T09:46:02.874Z,97.00
2024-02-28T09:48:31.328Z,96.75
2024-02-28T09:50:59.516Z,95.99
2024-02-28T09:53:28.818Z,96.28
2024-02-28T09:55:56.769Z,96.58
2024-02-28T09:58:25.227Z,95.02
2024-02-28T10:00:55.069Z,95.06
2024-02-28T10:03:24.428Z,94.34
2024-02-28T10:05:52.156Z,94.36
2024-02-28T10:08:19.838Z,94.17
2024-02-28T10:10:49.712Z,91.27
2024-02-28T10:13:17.979Z,91.38
2024-02-28T10:15:45.798Z,91.41
2024-02-28T10:18:13.683Z,91.46
2024-02-28T10:20:41.574Z,91.93
2024-02-28T10:23:10.633Z,91.69
2024-02-28T10:25:51.896Z,90.74
2024-02-28T10:28:25.711Z,89.69
2024-02-28T10:30:54.461Z,90.15
2024-02-28T10:33:22.344Z,89.63
2024-02-28T10:35:53.161Z,89.97
2024-02-28T10:38:20.887Z,90.18
2024-02-28T10:40:49.517Z,90.24
2024-02-28T10:43:18.840Z,91.15
2024-02-28T10:46:07.014Z,90.50
2024-02-28T10:48:36.262Z,90.31
2024-02-28T10:51:05.791Z,90.19
2024-02-28T10:53:36.903Z,89.18
2024-02-28T10:56:05.663Z,88.68
2024-02-28T10:58:39.168Z,87.94
2024-02-28T11:01:09.539Z,87.88
2024-02-28T11:03:37.447Z,86.92
2024-02-28T11:06:05.914Z,88.15
2024-02-28T11:08:36.154Z,88.99
2024-02-28T11:11:05.428Z,89.01
2024-02-28T11:13:33.433Z,87.12
2024-02-28T11:16:11.351Z,86.53
2024-02-28T11:18:50.298Z,86.42
2024-02-28T11:21:18.167Z,86.02
2024-02-28T11:23:49.004Z,85.76
2024-02-28T11:26:17.269Z,85.41
2024-02-28T11:28:45.377Z,85.37
2024-02-28T11:31:14.512Z,85.42
2024-02-28T11:33:42.503Z,84.93
2024-02-28T11:36:10.541Z,84.62
2024-02-28T11:38:39.300Z,84.41
2024-02-28T11:41:07.188Z,83.57
2024-02-28T11:43:46.965Z,83.10
2024-02-28T11:46:21.280Z,83.32
2024-02-28T11:48:49.285Z,82.05
2024-02-28T11:51:17.398Z,81.85
2024-02-28T11:53:45.863Z,83.03
2024-02-28T11:56:18.553Z,82.84
2024-02-28T11:58:52.149Z,81.60
2024-02-28T12:01:21.671Z,80.81
2024-02-28T12:03:49.496Z,81.12
2024-02-28T12:06:17.235Z,81.84
2024-02-28T12:08:46.020Z,81.80
2024-02-28T12:11:16.063Z,81.55
2024-02-28T12:13:45.619Z,80.61
2024-02-28T12:16:14.746Z,80.21
2024-02-28T12:18:44.256Z,80.08
2024-02-28T12:21:12.408Z,80.80
2024-02-28T12:23:40.139Z,79.95
2024-02-28T12:26:07.919Z,78.37
2024-02-28T12:28:35.637Z,77.11
2024-02-28T12:31:03.945Z,76.59
2024-02-28T12:33:33.497Z,75.80
2024-02-28T12:36:04.543Z,74.95
2024-02-28T12:38:32.596Z,73.71
2024-02-28T12:41:00.290Z,73.77
2024-02-28T12:43:28.071Z,72.74
2024-02-28T12:45:55.731Z,73.62
2024-02-28T12:48:23.958Z,72.95
2024-02-28T12:50:51.697Z,74.05
2024-02-28T12:53:20.813Z,72.01
2024-02-28T12:55:48.549Z,71.91
2024-02-28T12:58:16.221Z,71.62
2024-02-28T13:00:44.011Z,71.19
2024-02-28T13:03:11.814Z,72.00
2024-02-28T13:05:39.559Z,72.87
2024-02-28T13:08:07.838Z,73.46
2024-02-28T13:10:40.683Z,73.51
2024-02-28T13:13:08.557Z,73.44
2024-02-28T13:15:36.334Z,71.97
2024-02-28T13:18:10.382Z,72.67
2024-02-28T13:20:39.040Z,72.65
2024-02-28T13:23:06.950Z,69.98
2024-02-28T13:25:36.007Z,69.37
2024-02-28T13:28:03.765Z,70.50
2024-02-28T13:30:31.525Z,71.07
2024-02-28T13:32:59.794Z,70.04
2024-02-28T13:35:27.690Z,70.49
2024-02-28T13:38:00.786Z,69.71
2024-02-28T13:40:28.522Z,70.42
2024-02-28T13:42:57.566Z,68.05
2024-02-28T13:45:41.461Z,68.43
2024-02-28T13:48:18.493Z,69.42
2024-02-28T13:50:47.601Z,69.71
2024-02-28T13:53:17.583Z,69.96
2024-02-28T13:55:47.089Z,70.66
2024-02-28T13:58:21.224Z,69.20
2024-02-28T14:00:55.617Z,69.15
2024-02-28T14:03:34.454Z,69.13
2024-02-28T14:06:03.502Z,68.60
2024-02-28T14:08:36.156Z,68.81
2024-02-28T14:11:05.989Z,68.24
2024-02-28T14:13:35.819Z,67.37
2024-02-28T14:16:12.242Z,66.94
2024-02-28T14:18:42.589Z,66.62
2024-02-28T14:21:14.603Z,66.36
2024-02-28T14:23:44.830Z,67.16
2024-02-28T14:26:21.191Z,68.31
2024-02-28T14:28:49.154Z,68.57
2024-02-28T14:31:24.085Z,67.54
2024-02-28T14:33:58.758Z,67.89
2024-02-28T14:36:44.050Z,68.05
2024-02-28T14:39:16.970Z,68.17
2024-02-28T14:41:46.419Z,68.61
2024-02-28T14:44:14.218Z,69.74
2024-02-28T14:46:46.130Z,69.58
2024-02-28T14:49:15.082Z,68.56
2024-02-28T14:51:49.970Z,68.22
2024-02-28T14:54:20.900Z,67.40
2024-02-28T14:56:52.282Z,66.45
2024-02-28T14:59:24.619Z,65.49
2024-02-28T15:01:55.450Z,65.36
2024-02-28T15:04:25.949Z,66.75
2024-02-28T15:06:55.724Z,65.58
2024-02-28T15:09:24.613Z,65.06
2024-02-28T15:11:54.157Z,64.84
2024-02-28T15:14:26.066Z,63.84
2024-02-28T15:16:56.498Z,63.86
2024-02-28T15:19:28.198Z,64.52
2024-02-28T15:21:57.357Z,65.14
2024-02-28T15:24:27.459Z,65.00
2024-02-28T15:26:56.387Z,64.87
2024-02-28T15:29:28.631Z,64.62
2024-02-28T15:31:59.072Z,63.56
2024-02-28T15:34:27.858Z,63.33
2024-02-28T15:36:57.035Z,63.05
2024-02-28T15:39:25.964Z,63.85
2024-02-28T15:41:55.061Z,64.55
2024-02-28T15:44:25.156Z,65.30
2024-02-28T15:46:55.309Z,65.64
2024-02-28T15:49:33.318Z,65.64
2024-02-28T15:52:11.100Z,65.96
2024-02-28T15:54:40.491Z,66.08
2024-02-28T15:57:12.130Z,66.50
2024-02-28T15:59:41.629Z,66.36
2024-02-28T16:02:13.274Z,67.71
2024-02-28T16:04:46.523Z,68.42
2024-02-28T16:07:16.937Z,68.73
2024-02-28T16:09:46.227Z,68.76
2024-02-28T16:12:15.489Z,69.21
2024-02-28T16:14:47.538Z,69.34
2024-02-28T16:17:26.929Z,69.87
2024-02-28T16:19:57.127Z,70.17
2024-02-28T16:22:28.978Z,70.59
2024-02-28T16:24:57.884Z,70.84
2024-02-28T16:27:26.793Z,71.47
2024-02-28T16:29:55.924Z,72.27
2024-02-28T16:32:24.759Z,72.34
2024-02-28T16:34:55.324Z,72.71
2024-02-28T16:37:28.859Z,73.27
2024-02-28T16:39:58.169Z,73.82
2024-02-28T16:42:27.922Z,74.39
2024-02-28T16:44:57.374Z,74.56
2024-02-28T16:47:26.586Z,74.77
2024-02-28T16:49:54.285Z,74.93
2024-02-28T16:52:25.375Z,75.31
2024-02-28T16:54:54.574Z,75.57
2024-02-28T16:57:26.148Z,75.19
2024-02-28T16:59:57.956Z,75.28
2024-02-28T17:02:27.016Z,75.30
2024-02-28T17:04:58.452Z,75.04
2024-02-28T17:07:29.093Z,75.32
2024-02-28T17:09:58.193Z,75.71
2024-02-28T17:12:29.697Z,76.15
2024-02-28T17:15:02.469Z,75.99
2024-02-28T17:17:37.751Z,76.46
2024-02-28T17:20:08.628Z,76.20
2024-02-28T17:22:46.650Z,76.11
2024-02-28T17:25:15.491Z,75.81
2024-02-28T17:27:49.280Z,75.90
2024-02-28T17:30:17.329Z,75.89
2024-02-28T17:32:50.125Z,75.48
2024-02-28T17:35:20.433Z,75.10
2024-02-28T17:37:51.123Z,75.09
2024-02-28T17:40:20.237Z,74.84
2024-02-28T17:42:49.072Z,74.87
2024-02-28T17:45:19.192Z,75.38
2024-02-28T17:47:48.232Z,75.20
2024-02-28T17:50:17.526Z,75.50
2024-02-28T17:52:48.442Z,75.29
2024-02-28T17:55:22.582Z,75.62
2024-02-28T17:57:52.095Z,76.14
2024-02-28T18:00:27.252Z,76.15
2024-02-28T18:02:58.552Z,76.52
2024-02-28T18:05:32.612Z,76.96
2024-02-28T18:08:02.130Z,77.31
2024-02-28T18:10:47.679Z,77.71
2024-02-28T18:13:18.978Z,77.57
2024-02-28T18:15:47.737Z,78.04
2024-02-28T18:18:18.402Z,77.88
2024-02-28T18:20:47.670Z,78.12
2024-02-28T18:23:24.613Z,77.97
2024-02-28T18:26:01.158Z,78.20
2024-02-28T18:28:32.981Z,77.91
2024-02-28T18:31:02.490Z,77.87
2024-02-28T18:33:37.384Z,77.81
2024-02-28T18:36:14.656Z,77.18
2024-02-28T18:38:43.940Z,76.35
2024-02-28T18:41:14.452Z,76.03
2024-02-28T18:43:45.897Z,75.36
2024-02-28T18:46:17.284Z,75.21
2024-02-28T18:48:46.370Z,74.94
2024-02-28T18:51:18.669Z,74.51
2024-02-28T18:53:47.716Z,74.13
2024-02-28T18:56:17.049Z,73.48
2024-02-28T18:58:48.742Z,73.13
2024-02-28T19:04:07.049Z,72.45
2024-02-28T19:06:35.861Z,72.57
2024-02-28T19:09:03.666Z,72.90
2024-02-28T19:11:34.663Z,72.06
2024-02-28T19:14:03.720Z,72.22
2024-02-28T19:16:32.703Z,72.78
2024-02-28T19:19:01.476Z,73.58
2024-02-28T19:21:30.532Z,73.76
2024-02-28T19:23:59.640Z,74.23
2024-02-28T19:26:31.824Z,74.00
2024-02-28T19:29:04.069Z,74.13
2024-02-28T19:31:31.765Z,73.92
2024-02-28T19:34:01.156Z,73.79
2024-02-28T19:36:33.000Z,74.05
2024-02-28T19:39:04.599Z,74.07
2024-02-28T19:41:33.757Z,73.78
2024-02-28T19:44:06.743Z,73.45
2024-02-28T19:46:41.712Z,73.35
2024-02-28T19:49:12.998Z,74.03
2024-02-28T19:51:44.750Z,74.36
2024-02-28T19:54:22.055Z,74.59
2024-02-28T19:56:51.877Z,75.12
2024-02-28T19:59:22.388Z,75.43
2024-02-28T20:01:53.853Z,76.00
2024-02-28T20:04:23.079Z,76.35
2024-02-28T20:06:52.522Z,75.80
2024-02-28T20:09:21.488Z,76.40
2024-02-28T20:11:50.864Z,76.46
2024-02-28T20:14:20.166Z,76.65
2024-02-28T20:16:52.726Z,77.29
2024-02-28T20:19:21.863Z,77.04
2024-02-28T20:21:53.836Z,77.32
2024-02-28T20:24:24.643Z,77.26
2024-02-28T20:26:52.673Z,77.18
2024-02-28T20:29:21.574Z,77.44
2024-02-28T20:31:50.685Z,77.80
2024-02-28T20:34:19.664Z,77.52
2024-02-28T20:36:47.968Z,77.05
2024-02-28T20:39:17.442Z,76.63
2024-02-28T20:41:50.575Z,77.00
2024-02-28T20:44:20.660Z,77.22
2024-02-28T20:46:53.344Z,76.88
2024-02-28T20:49:22.497Z,76.92
2024-02-28T20:51:56.427Z,76.94
2024-02-28T20:54:28.532Z,77.19
2024-02-28T20:57:05.764Z,77.33
2024-02-28T20:59:42.783Z,77.04
2024-02-28T21:02:15.523Z,77.78
2024-02-28T21:04:45.888Z,77.43
2024-02-28T21:07:15.187Z,77.92
2024-02-28T21:09:48.408Z,78.51
2024-02-28T21:12:20.891Z,78.62
2024-02-28T21:14:51.934Z,78.95
2024-02-28T21:17:23.579Z,79.67
2024-02-28T21:19:52.411Z,80.51
2024-02-28T21:22:21.247Z,80.54
2024-02-28T21:24:50.479Z,80.65
2024-02-28T21:27:19.582Z,80.56
2024-02-28T21:29:48.566Z,80.86
2024-02-28T21:32:16.479Z,80.96
2024-02-28T21:34:53.553Z,81.16
2024-02-28T21:37:25.163Z,81.51
2024-02-28T21:39:54.199Z,81.15
2024-02-28T21:42:23.273Z,81.62
2024-02-28T21:44:52.527Z,81.48
2024-02-28T21:47:23.755Z,81.46
2024-02-28T21:49:53.880Z,82.06
2024-02-28T21:52:25.111Z,82.02
2024-02-28T21:54:54.201Z,81.94
2024-02-28T21:57:23.680Z,81.87
2024-02-28T21:59:53.377Z,81.95
2024-02-28T22:02:27.349Z,81.82
2024-02-28T22:04:56.707Z,81.92
2024-02-28T22:07:24.949Z,82.62
2024-02-28T22:09:53.808Z,82.83
2024-02-28T22:12:22.930Z,82.56
2024-02-28T22:14:51.880Z,81.72
2024-02-28T22:17:22.237Z,81.71
2024-02-28T22:19:51.239Z,81.95
2024-02-28T22:22:20.292Z,82.13
2024-02-28T22:24:50.790Z,82.45
2024-02-28T22:27:18.560Z,82.47
2024-02-28T22:29:46.487Z,82.35
2024-02-28T22:32:17.209Z,82.50
2024-02-28T22:34:48.337Z,82.29
2024-02-28T22:37:19.595Z,82.12
2024-02-28T22:39:52.556Z,81.90
2024-02-28T22:42:21.493Z,82.22
2024-02-28T22:44:53.623Z,82.40
2024-02-28T22:47:24.114Z,83.03
2024-02-28T22:49:53.061Z,83.34
2024-02-28T22:52:23.152Z,83.31
2024-02-28T22:55:00.953Z,84.14
2024-02-28T22:57:30.878Z,84.15
2024-02-28T22:59:59.944Z,84.38
2024-02-28T23:02:28.880Z,84.22
2024-02-28T23:04:57.848Z,84.24
2024-02-28T23:07:27.193Z,85.11
2024-02-28T23:09:57.616Z,85.29
2024-02-28T23:12:28.876Z,85.55
2024-02-28T23:14:57.554Z,85.73
2024-02-28T23:17:28.844Z,86.68
2024-02-28T23:19:57.806Z,86.63
2024-02-28T23:22:26.651Z,86.62
2024-02-28T23:24:57.405Z,87.20
2024-02-28T23:27:27.051Z,87.03
2024-02-28T23:29:56.459Z,87.01
2024-02-28T23:32:25.692Z,87.03
2024-02-28T23:34:54.740Z,88.46
2024-02-28T23:37:23.488Z,88.23
2024-02-28T23:39:52.512Z,89.30
2024-02-28T23:42:23.133Z,89.44
2024-02-28T23:44:52.522Z,89.73
2024-02-28T23:47:21.469Z,89.43
2024-02-28T23:49:52.503Z,89.40
2024-02-28T23:52:21.556Z,89.21
2024-02-28T23:54:53.223Z,88.71
2024-02-28T23:57:25.954Z,88.81
2024-02-28T23:59:55.181Z,88.60
